Agana Heights, Guam
Current Conditions -  °F | °C
As of 3:54 AM on Friday 19 Dec 2014 (Local Time) from PGUM Reporting Station
Clear Clear  
Wind Chill: 26°   Ceiling: Unl
Heat Index: 28°   Visibility: 10mi
Dew Point: 24°   Wind: 12mph
Humidity: 88%   Direction: 60°ENE
Pressure: 29.91"   Gusts: NA
Location:  13.47°N, 144.74°E
Report Text: PGUM 181754Z 06010KT 10SM CLR 26/24 A2991 RMK AO2 RAE1655 SLP120 60000 T02610239 10272 20250 58016
Loading
Personal Weather Stations






























Interactive Weather Map New forecast layout! Learn more

10-Day Weather Forecast

Advertisements
Track Severe Weather on mobile